Helmetta, New Jersey
Current Conditions -  °F | °C
As of 6:15 AM on Wednesday 26 Nov 2014 (Local Time) from KLDJ Reporting Station
Drizzle Drizzle  
Wind Chill: 47°   Ceiling: 7000
Heat Index: 50°   Visibility: 10mi
Dew Point: 34°   Wind: 7mph
Humidity: 55%   Direction: 40°NE
Pressure: 30.11"   Gusts: NA
Location:  40.38°N, 74.42°W
Report Text: KLDJ 261115Z AUTO 04006KT 10SM DZ SCT055 BKN070 OVC080 10/01 A3011 RMK AO2 T00990013
Loading
Personal Weather Stations






























Interactive Weather Map New forecast layout! Learn more

10-Day Weather Forecast

Advertisements
Track Severe Weather on mobile